Time;durP1;ratioP1;P1;durP2;ratioP2;P2;SDS_P1;SDS_P2;PMS_P1;PMS_P2;Temp;Humidity;BMP_temperature;BMP_pressure;BME280_temperature;BME280_humidity;BME280_pressure;Samples;Min_cycle;Max_cycle;Signal;HPM_P1;HPM_P2
2021/09/28 00:00:35;;;;;;;22.10;20.90;;;17.20;81.20;;;;;;5063777;28;20479;-74
2021/09/28 00:03:02;;;;;;;21.90;20.80;;;16.90;81.90;;;;;;5070225;28;20963;-74
2021/09/28 00:05:31;;;;;;;21.67;20.57;;;16.80;82.40;;;;;;5069640;28;20462;-74
2021/09/28 00:07:58;;;;;;;22.27;21.17;;;16.90;82.50;;;;;;5070574;28;20468;-74
2021/09/28 00:10:25;;;;;;;21.93;20.63;;;17.00;82.50;;;;;;5068635;28;20476;-74
2021/09/28 00:12:52;;;;;;;22.03;20.93;;;17.00;82.00;;;;;;5069536;28;20462;-74
2021/09/28 00:15:20;;;;;;;22.00;20.90;;;17.00;81.30;;;;;;5068324;28;20462;-74
2021/09/28 00:17:47;;;;;;;21.70;20.60;;;17.00;81.60;;;;;;5070165;28;20450;-74
2021/09/28 00:20:14;;;;;;;21.40;20.40;;;17.00;81.30;;;;;;5068759;28;20565;-74
2021/09/28 00:22:43;;;;;;;22.07;20.90;;;16.90;81.50;;;;;;5070291;28;20530;-74
2021/09/28 00:25:11;;;;;;;21.20;20.10;;;16.80;81.80;;;;;;5069385;28;20458;-74
2021/09/28 00:27:38;;;;;;;21.37;20.30;;;16.70;81.90;;;;;;5069738;28;20549;-74
2021/09/28 00:30:06;;;;;;;21.40;20.30;;;16.70;81.80;;;;;;5064683;28;20462;-74
2021/09/28 00:32:33;;;;;;;21.47;20.37;;;16.70;81.60;;;;;;5069451;28;20454;-73
2021/09/28 00:35:00;;;;;;;21.50;20.40;;;16.60;81.70;;;;;;5069525;28;20464;-74
2021/09/28 00:37:27;;;;;;;21.83;20.73;;;16.50;82.00;;;;;;5070322;28;20472;-74
2021/09/28 00:39:55;;;;;;;21.00;19.90;;;16.40;84.10;;;;;;5063952;28;21038;-74
2021/09/28 00:42:22;;;;;;;20.93;19.93;;;16.40;85.00;;;;;;5070128;28;20555;-74
2021/09/28 00:44:49;;;;;;;20.80;19.80;;;16.30;85.50;;;;;;5064140;28;20459;-74
2021/09/28 00:47:17;;;;;;;21.37;20.07;;;16.00;85.60;;;;;;5063978;28;20465;-75
2021/09/28 00:49:47;;;;;;;20.60;19.50;;;15.60;87.00;;;;;;5066024;28;20466;-74
2021/09/28 00:52:18;;;;;;;20.83;19.57;;;15.50;87.70;;;;;;5068983;28;20457;-74
2021/09/28 00:54:46;;;;;;;21.73;20.60;;;15.50;85.70;;;;;;5063515;28;20461;-73
2021/09/28 00:57:15;;;;;;;21.37;19.87;;;15.10;84.60;;;;;;5068501;28;20454;-73
2021/09/28 00:59:43;;;;;;;21.40;20.07;;;14.90;85.50;;;;;;5068191;28;20473;-73
2021/09/28 01:02:11;;;;;;;21.80;20.40;;;14.80;86.20;;;;;;5068278;28;20541;-73
2021/09/28 01:04:38;;;;;;;21.07;19.97;;;14.70;86.90;;;;;;5068839;28;20469;-73
2021/09/28 01:07:08;;;;;;;21.30;20.20;;;14.60;87.60;;;;;;5069208;28;20450;-73
2021/09/28 01:09:37;;;;;;;20.30;19.30;;;14.60;87.70;;;;;;5068692;28;20545;-73
2021/09/28 01:12:05;;;;;;;21.77;20.30;;;14.60;87.90;;;;;;5069375;28;20452;-73
2021/09/28 01:14:33;;;;;;;21.03;19.70;;;14.80;87.30;;;;;;5067589;28;21124;-73
2021/09/28 01:17:00;;;;;;;20.80;19.60;;;14.90;86.80;;;;;;5068171;28;20560;-73
2021/09/28 01:19:27;;;;;;;20.50;19.40;;;15.00;86.60;;;;;;5068579;28;20477;-73
2021/09/28 01:21:55;;;;;;;21.17;20.00;;;14.90;87.50;;;;;;5067129;28;20465;-74
2021/09/28 01:24:22;;;;;;;21.07;19.97;;;14.90;87.50;;;;;;5068863;28;20463;-74
2021/09/28 01:26:49;;;;;;;21.33;19.93;;;14.90;87.30;;;;;;5068787;28;20458;-75
2021/09/28 01:29:16;;;;;;;20.70;19.60;;;14.90;87.60;;;;;;5068089;28;20959;-74
2021/09/28 01:31:42;;;;;;;20.90;19.60;;;15.00;86.60;;;;;;5069232;28;20461;-73
2021/09/28 01:34:09;;;;;;;21.10;19.90;;;15.00;86.80;;;;;;5068231;28;20461;-74
2021/09/28 01:36:37;;;;;;;21.47;20.40;;;15.10;86.30;;;;;;5069948;28;20465;-73
2021/09/28 01:39:05;;;;;;;21.80;20.60;;;15.10;84.40;;;;;;5068473;28;20469;-73
2021/09/28 01:41:32;;;;;;;22.20;21.00;;;15.10;84.70;;;;;;5065038;28;20473;-73
2021/09/28 01:44:07;;;;;;;21.77;20.50;;;15.10;84.90;;;;;;5066530;28;20466;-72
2021/09/28 01:46:35;;;;;;;21.80;20.50;;;15.20;84.90;;;;;;5062579;28;20449;-73
2021/09/28 01:49:03;;;;;;;22.30;21.10;;;15.20;84.50;;;;;;5068491;28;20486;-73
2021/09/28 01:51:30;;;;;;;22.63;21.40;;;15.20;83.60;;;;;;5068520;28;20553;-74
2021/09/28 01:53:56;;;;;;;23.07;21.70;;;15.20;82.50;;;;;;5068285;28;20812;-73
2021/09/28 01:56:26;;;;;;;22.60;21.27;;;15.00;82.40;;;;;;5069075;28;20481;-72
2021/09/28 01:58:53;;;;;;;22.70;21.60;;;15.00;82.80;;;;;;5068627;28;20458;-74
2021/09/28 02:01:20;;;;;;;22.97;21.53;;;14.90;83.30;;;;;;5068307;28;20858;-73
2021/09/28 02:03:47;;;;;;;22.43;21.23;;;14.90;83.60;;;;;;5068088;28;20553;-74
2021/09/28 02:06:14;;;;;;;22.53;21.13;;;15.00;83.60;;;;;;5055304;28;20956;-73
2021/09/28 02:08:41;;;;;;;22.40;21.20;;;15.00;83.80;;;;;;5068638;28;20457;-74
2021/09/28 02:11:08;;;;;;;22.30;21.00;;;15.00;83.90;;;;;;5067525;28;20990;-75
2021/09/28 02:13:36;;;;;;;23.03;21.60;;;15.00;84.30;;;;;;5067614;28;20469;-73
2021/09/28 02:16:04;;;;;;;22.50;21.20;;;15.00;84.70;;;;;;5055057;28;20504;-73
2021/09/28 02:18:31;;;;;;;22.17;20.97;;;15.10;84.60;;;;;;5068868;28;20458;-73
2021/09/28 02:20:58;;;;;;;22.50;21.30;;;15.10;84.50;;;;;;5062934;28;20695;-73
2021/09/28 02:23:25;;;;;;;22.87;21.47;;;15.10;84.60;;;;;;5068616;28;20461;-73
2021/09/28 02:25:52;;;;;;;23.53;22.17;;;15.10;84.60;;;;;;5067618;28;20466;-73
2021/09/28 02:28:19;;;;;;;23.30;21.80;;;15.20;84.60;;;;;;5068730;28;20561;-73
2021/09/28 02:30:47;;;;;;;22.60;21.40;;;15.20;84.50;;;;;;5067738;28;20481;-73
2021/09/28 02:33:14;;;;;;;22.50;21.30;;;15.20;84.20;;;;;;5068092;28;20811;-73
2021/09/28 02:35:43;;;;;;;22.47;21.10;;;15.20;84.30;;;;;;5057689;28;20824;-73
2021/09/28 02:38:10;;;;;;;23.60;22.30;;;15.20;84.10;;;;;;5068811;28;20827;-73
2021/09/28 02:40:37;;;;;;;23.90;22.40;;;15.20;84.10;;;;;;5057838;28;20486;-73
2021/09/28 02:43:04;;;;;;;24.37;22.80;;;15.10;84.30;;;;;;5059619;28;20462;-73
2021/09/28 02:45:31;;;;;;;22.80;21.30;;;15.10;84.40;;;;;;5066441;28;20944;-73
2021/09/28 02:48:00;;;;;;;22.93;21.40;;;15.10;84.30;;;;;;5068184;28;20544;-74
2021/09/28 02:50:26;;;;;;;22.47;21.17;;;15.10;84.70;;;;;;5067340;28;20473;-73
2021/09/28 02:52:53;;;;;;;23.10;21.70;;;15.10;84.80;;;;;;5067443;28;20453;-73
2021/09/28 02:55:20;;;;;;;23.20;21.90;;;15.10;85.00;;;;;;5067517;28;20454;-73
2021/09/28 02:57:47;;;;;;;23.43;22.10;;;15.10;85.10;;;;;;5067304;28;20461;-73
2021/09/28 03:00:15;;;;;;;27.90;25.97;;;15.10;84.80;;;;;;5060954;28;20481;-73
2021/09/28 03:02:42;;;;;;;22.20;21.00;;;15.10;84.80;;;;;;5068080;28;20508;-73
2021/09/28 03:05:11;;;;;;;23.00;21.50;;;15.00;84.70;;;;;;5058242;28;20802;-73
2021/09/28 03:07:37;;;;;;;23.23;21.83;;;15.00;84.80;;;;;;5064882;28;20450;-73
2021/09/28 03:10:05;;;;;;;24.40;22.93;;;15.00;85.10;;;;;;5067257;28;20527;-73
2021/09/28 03:12:33;;;;;;;24.07;22.53;;;15.00;85.10;;;;;;5067740;28;20454;-74
2021/09/28 03:15:00;;;;;;;24.70;23.30;;;14.90;85.50;;;;;;5067284;28;20882;-74
2021/09/28 03:17:26;;;;;;;24.50;22.70;;;14.90;85.90;;;;;;5068224;28;20917;-74
2021/09/28 03:19:53;;;;;;;23.03;21.73;;;14.90;86.20;;;;;;5066705;28;20975;-74
2021/09/28 03:22:21;;;;;;;23.87;22.47;;;14.80;86.90;;;;;;5067883;28;20565;-74
2021/09/28 03:24:48;;;;;;;25.00;23.70;;;14.90;86.70;;;;;;5069012;28;20465;-73
2021/09/28 03:27:15;;;;;;;25.10;23.60;;;14.80;87.00;;;;;;5071902;28;20463;-73
2021/09/28 03:29:42;;;;;;;22.40;21.20;;;14.80;87.10;;;;;;5070862;28;20561;-73
2021/09/28 03:32:09;;;;;;;26.07;24.47;;;14.70;87.40;;;;;;5071322;28;20454;-73
2021/09/28 03:34:36;;;;;;;23.00;21.70;;;14.60;87.70;;;;;;5069832;28;20454;-73
2021/09/28 03:37:03;;;;;;;23.20;21.67;;;14.60;87.90;;;;;;5071913;28;20460;-73
2021/09/28 03:39:32;;;;;;;25.93;24.43;;;14.50;88.30;;;;;;5067113;28;20892;-73
2021/09/28 03:41:59;;;;;;;23.57;22.10;;;14.50;88.30;;;;;;5064110;28;20480;-73
2021/09/28 03:44:26;;;;;;;23.30;22.00;;;14.50;88.40;;;;;;5067937;28;21070;-73
2021/09/28 03:46:53;;;;;;;25.10;23.57;;;14.40;88.60;;;;;;5070933;28;20455;-73
2021/09/28 03:49:20;;;;;;;23.37;21.87;;;14.40;88.70;;;;;;5069402;28;20544;-73
2021/09/28 03:51:47;;;;;;;23.93;22.63;;;14.40;88.90;;;;;;5070999;28;21042;-73
2021/09/28 03:54:14;;;;;;;26.40;24.27;;;14.30;88.90;;;;;;5069023;28;20480;-73
2021/09/28 03:56:42;;;;;;;23.50;22.00;;;14.30;89.10;;;;;;5069986;28;20456;-73
2021/09/28 03:59:09;;;;;;;24.57;22.97;;;14.30;89.10;;;;;;5068974;28;20469;-73
2021/09/28 04:01:36;;;;;;;25.80;24.07;;;14.30;89.30;;;;;;5070818;28;20473;-73
2021/09/28 04:04:03;;;;;;;27.80;25.83;;;14.20;89.60;;;;;;5068799;28;20454;-74
2021/09/28 04:06:29;;;;;;;23.80;22.50;;;14.20;89.60;;;;;;5070648;28;20454;-74
2021/09/28 04:08:56;;;;;;;24.97;23.23;;;14.10;89.60;;;;;;5070403;28;20454;-74
2021/09/28 04:11:24;;;;;;;25.17;23.37;;;14.10;89.90;;;;;;5067440;28;20466;-74
2021/09/28 04:13:52;;;;;;;23.27;21.87;;;14.00;90.00;;;;;;5070372;28;20462;-74
2021/09/28 04:16:20;;;;;;;27.10;25.30;;;13.90;90.00;;;;;;5069745;28;20520;-74
2021/09/28 04:18:47;;;;;;;25.37;23.87;;;13.90;89.90;;;;;;5070824;28;20462;-74
2021/09/28 04:21:14;;;;;;;26.20;24.20;;;13.90;89.80;;;;;;5068956;28;20508;-74
2021/09/28 04:23:41;;;;;;;29.23;27.53;;;13.90;89.90;;;;;;5070237;28;20863;-74
2021/09/28 04:26:08;;;;;;;26.73;25.23;;;13.90;89.70;;;;;;5067103;28;20464;-74
2021/09/28 04:28:36;;;;;;;25.50;24.00;;;13.80;89.70;;;;;;5069376;28;20459;-74
2021/09/28 04:31:04;;;;;;;27.23;25.10;;;13.80;89.90;;;;;;5069311;28;20533;-74
2021/09/28 04:33:31;;;;;;;28.90;27.40;;;13.80;90.00;;;;;;5069637;28;20478;-73
2021/09/28 04:35:58;;;;;;;24.50;22.87;;;13.80;90.10;;;;;;5069541;28;20948;-73
2021/09/28 04:38:25;;;;;;;25.07;23.57;;;13.70;90.20;;;;;;5070239;28;20862;-73
2021/09/28 04:40:51;;;;;;;24.70;23.10;;;13.70;90.30;;;;;;5069011;28;21038;-73
2021/09/28 04:43:18;;;;;;;26.77;25.03;;;13.60;90.70;;;;;;5070129;28;20831;-73
2021/09/28 04:45:45;;;;;;;24.57;23.10;;;13.50;91.10;;;;;;5067937;28;20460;-73
2021/09/28 04:48:13;;;;;;;25.10;23.63;;;13.40;91.60;;;;;;5070723;28;20537;-73
2021/09/28 04:50:40;;;;;;;23.65;21.98;;;13.40;91.80;;;;;;5066200;28;20455;-74
2021/09/28 04:53:07;;;;;;;26.27;24.67;;;13.50;91.70;;;;;;5068422;28;20195;-73
2021/09/28 04:55:34;;;;;;;26.03;24.30;;;13.40;91.50;;;;;;5068540;28;20453;-75
2021/09/28 04:58:01;;;;;;;23.20;21.90;;;13.40;91.60;;;;;;5070079;28;21001;-73
2021/09/28 05:00:28;;;;;;;24.30;22.70;;;13.30;91.80;;;;;;5063511;28;20490;-75
2021/09/28 05:02:55;;;;;;;26.67;24.73;;;13.30;91.80;;;;;;5069647;28;20461;-74
2021/09/28 05:05:23;;;;;;;27.70;25.90;;;13.30;91.80;;;;;;5065198;28;20505;-74
2021/09/28 05:07:50;;;;;;;25.43;23.93;;;13.20;91.90;;;;;;5069894;28;20446;-74
2021/09/28 05:10:17;;;;;;;24.13;22.63;;;13.20;92.00;;;;;;5069224;28;20990;-74
2021/09/28 05:12:44;;;;;;;28.10;26.33;;;13.20;91.80;;;;;;5068246;28;20922;-74
2021/09/28 05:15:11;;;;;;;23.93;22.53;;;13.20;91.70;;;;;;5068656;28;20464;-74
2021/09/28 05:17:38;;;;;;;26.43;24.93;;;13.20;91.70;;;;;;5069587;28;20545;-75
2021/09/28 05:20:09;;;;;;;25.57;23.97;;;13.20;91.80;;;;;;5066833;28;20479;-73
2021/09/28 05:22:38;;;;;;;24.50;23.00;;;13.20;91.50;;;;;;5069853;28;20456;-73
2021/09/28 05:25:05;;;;;;;27.07;25.37;;;13.20;91.50;;;;;;5065697;28;20900;-75
2021/09/28 05:27:32;;;;;;;24.75;23.10;;;13.30;91.70;;;;;;5071161;28;20450;-73
2021/09/28 05:29:59;;;;;;;26.23;24.20;;;13.30;91.50;;;;;;5065735;28;20305;-75
2021/09/28 05:32:26;;;;;;;24.77;23.13;;;13.30;91.50;;;;;;5069581;28;20991;-74
2021/09/28 05:34:53;;;;;;;25.20;23.63;;;13.20;91.60;;;;;;5064566;28;20450;-74
2021/09/28 05:37:20;;;;;;;25.07;23.43;;;13.30;91.60;;;;;;5063808;28;20454;-76
2021/09/28 05:39:53;;;;;;;27.60;25.70;;;13.30;91.50;;;;;;5062641;28;20552;-72
2021/09/28 05:42:20;;;;;;;24.33;22.90;;;13.30;91.40;;;;;;5063979;28;20458;-72
2021/09/28 05:44:47;;;;;;;27.73;25.67;;;13.30;91.50;;;;;;5058402;28;20541;-73
2021/09/28 05:47:14;;;;;;;26.90;25.10;;;13.40;91.20;;;;;;5067609;28;20469;-73
2021/09/28 05:49:41;;;;;;;27.37;25.47;;;13.40;91.00;;;;;;5056906;28;20482;-75
2021/09/28 05:52:12;;;;;;;26.50;24.70;;;13.40;90.70;;;;;;5068652;28;20577;-73
2021/09/28 05:54:47;;;;;;;24.10;22.70;;;13.40;90.80;;;;;;5064260;28;20978;-73
2021/09/28 05:57:16;;;;;;;26.27;24.57;;;13.50;90.60;;;;;;5066501;28;20988;-73
2021/09/28 05:59:42;;;;;;;25.60;23.97;;;13.50;90.40;;;;;;5062591;28;21007;-73
2021/09/28 06:02:10;;;;;;;25.33;23.73;;;13.50;90.10;;;;;;5064025;28;20488;-76
2021/09/28 06:04:38;;;;;;;25.43;23.73;;;13.50;90.10;;;;;;5065230;28;20462;-73
2021/09/28 06:07:06;;;;;;;25.63;23.90;;;13.60;89.90;;;;;;5061500;28;20840;-75
2021/09/28 06:09:35;;;;;;;26.63;24.67;;;13.70;89.70;;;;;;5058985;28;20581;-73
2021/09/28 06:12:03;;;;;;;25.87;24.27;;;13.80;89.50;;;;;;5067985;28;20474;-74
2021/09/28 06:14:32;;;;;;;27.17;25.57;;;13.90;89.20;;;;;;5063330;28;20774;-74
2021/09/28 06:16:59;;;;;;;27.77;25.87;;;13.80;88.80;;;;;;5062352;28;20458;-74
2021/09/28 06:19:26;;;;;;;25.80;24.10;;;13.90;89.00;;;;;;5064012;28;20452;-74
2021/09/28 06:21:53;;;;;;;25.80;24.17;;;13.90;89.00;;;;;;5063315;28;20474;-73
2021/09/28 06:24:20;;;;;;;25.00;23.50;;;14.00;88.90;;;;;;5065735;28;20468;-74
2021/09/28 06:26:49;;;;;;;25.33;23.87;;;14.10;88.40;;;;;;5054475;28;20477;-73
2021/09/28 06:29:16;;;;;;;24.90;23.30;;;14.20;88.00;;;;;;5066007;28;20469;-72
2021/09/28 06:31:44;;;;;;;25.10;23.60;;;14.30;87.80;;;;;;5054562;28;20450;-73
2021/09/28 06:34:13;;;;;;;25.43;23.80;;;14.40;87.30;;;;;;5068169;28;20544;-73
2021/09/28 06:36:40;;;;;;;25.17;23.60;;;14.50;86.90;;;;;;5069425;28;20476;-73
2021/09/28 06:39:07;;;;;;;26.63;25.03;;;14.50;87.30;;;;;;5067107;28;20559;-73
2021/09/28 06:41:34;;;;;;;25.83;24.63;;;14.50;87.20;;;;;;5063849;28;20482;-72
2021/09/28 06:44:01;;;;;;;25.67;24.30;;;14.60;86.80;;;;;;5068004;28;20454;-71
2021/09/28 06:46:28;;;;;;;24.97;23.57;;;14.80;86.20;;;;;;5068541;28;20489;-73
2021/09/28 06:48:56;;;;;;;28.70;26.83;;;14.80;85.70;;;;;;5069270;28;20533;-74
2021/09/28 06:51:23;;;;;;;26.73;25.23;;;14.90;85.20;;;;;;5066694;28;20488;-73
2021/09/28 06:53:50;;;;;;;26.53;25.03;;;15.00;85.00;;;;;;5068346;28;20476;-73
2021/09/28 06:56:18;;;;;;;27.23;25.63;;;15.00;84.80;;;;;;5067679;28;20460;-73
2021/09/28 06:58:45;;;;;;;25.87;24.27;;;15.00;84.60;;;;;;5069279;28;20946;-74
2021/09/28 07:01:12;;;;;;;28.27;26.67;;;15.00;84.80;;;;;;5069134;28;20478;-73
2021/09/28 07:03:40;;;;;;;25.90;24.40;;;15.00;84.60;;;;;;5059911;28;20443;-72
2021/09/28 07:06:08;;;;;;;25.90;24.10;;;15.10;84.30;;;;;;5057991;28;20454;-74
2021/09/28 07:08:35;;;;;;;25.07;23.87;;;15.00;84.20;;;;;;5072185;28;20450;-75
2021/09/28 07:11:02;;;;;;;28.37;26.30;;;15.10;84.20;;;;;;5058636;28;20480;-74
2021/09/28 07:13:29;;;;;;;26.30;24.73;;;15.30;83.70;;;;;;5072058;28;20465;-74
2021/09/28 07:15:56;;;;;;;28.47;26.33;;;15.30;83.30;;;;;;5058875;28;20466;-74
2021/09/28 07:18:23;;;;;;;26.70;24.80;;;15.30;83.50;;;;;;5072364;28;20453;-75
2021/09/28 07:20:50;;;;;;;27.67;25.97;;;15.40;83.30;;;;;;5070085;28;20480;-74
2021/09/28 07:23:18;;;;;;;28.50;26.80;;;15.60;82.00;;;;;;5071672;28;20461;-74
2021/09/28 07:25:45;;;;;;;29.67;27.40;;;15.60;80.50;;;;;;5058961;28;20549;-74
2021/09/28 07:28:12;;;;;;;27.93;26.13;;;15.30;80.60;;;;;;5072260;28;20558;-74
2021/09/28 07:30:39;;;;;;;27.40;25.70;;;15.30;81.10;;;;;;5058895;28;20518;-74
2021/09/28 07:33:06;;;;;;;28.10;26.30;;;15.50;80.20;;;;;;5071458;28;20472;-74
2021/09/28 07:35:33;;;;;;;28.03;26.30;;;15.50;80.00;;;;;;5065626;28;20472;-75
2021/09/28 07:38:00;;;;;;;27.60;25.67;;;15.40;80.70;;;;;;5072138;28;20498;-74
2021/09/28 07:40:28;;;;;;;28.63;26.63;;;15.40;81.10;;;;;;5059972;28;20559;-76
2021/09/28 07:42:55;;;;;;;28.20;26.10;;;15.70;80.30;;;;;;5070027;28;20470;-75
2021/09/28 07:45:22;;;;;;;29.40;26.27;;;15.80;80.40;;;;;;5062531;28;20454;-76
2021/09/28 07:47:50;;;;;;;27.60;26.00;;;16.10;79.60;;;;;;5071556;28;20466;-76
2021/09/28 07:50:18;;;;;;;29.43;27.53;;;16.20;78.50;;;;;;5061710;28;20589;-74
2021/09/28 07:52:45;;;;;;;29.50;27.57;;;16.30;78.50;;;;;;5070905;28;20511;-76
2021/09/28 07:55:12;;;;;;;28.07;26.37;;;16.50;77.60;;;;;;5070172;28;20464;-75
2021/09/28 07:57:40;;;;;;;28.93;26.90;;;16.60;76.90;;;;;;5071793;28;20549;-77
2021/09/28 08:00:10;;;;;;;28.47;26.47;;;16.70;76.40;;;;;;5070456;28;20512;-74
2021/09/28 08:02:38;;;;;;;30.00;28.03;;;16.60;76.40;;;;;;5057681;28;20882;-73
2021/09/28 08:05:05;;;;;;;27.50;25.77;;;16.80;75.90;;;;;;5062596;28;20466;-73
2021/09/28 08:07:32;;;;;;;29.87;27.93;;;16.80;75.80;;;;;;5066456;28;20450;-72
2021/09/28 08:09:59;;;;;;;29.60;27.30;;;16.80;75.50;;;;;;5066162;28;20478;-73
2021/09/28 08:12:26;;;;;;;29.00;27.03;;;16.80;74.70;;;;;;5070794;28;20455;-73
2021/09/28 08:14:58;;;;;;;31.77;29.90;;;17.00;73.20;;;;;;5064113;28;20559;-73
2021/09/28 08:17:25;;;;;;;30.00;27.70;;;17.00;73.20;;;;;;5065518;28;20461;-73
2021/09/28 08:19:52;;;;;;;30.67;28.23;;;16.90;74.30;;;;;;5064074;28;20511;-73
2021/09/28 08:22:20;;;;;;;27.83;25.87;;;17.00;74.40;;;;;;5066436;28;20532;-73
2021/09/28 08:24:50;;;;;;;29.13;26.80;;;16.80;74.30;;;;;;5065029;28;20459;-72
2021/09/28 08:30:06;;;;;;;28.35;26.45;;;17.20;74.90;;;;;;5063662;28;20479;-74
2021/09/28 08:32:33;;;;;;;30.47;28.07;;;17.70;74.30;;;;;;5067898;28;20207;-72
2021/09/28 08:35:00;;;;;;;28.60;26.70;;;17.90;71.60;;;;;;5065914;28;21020;-73
2021/09/28 08:37:27;;;;;;;29.27;27.37;;;17.70;72.60;;;;;;5069642;28;20458;-72
2021/09/28 08:39:54;;;;;;;29.60;27.50;;;17.90;72.80;;;;;;5060609;28;20486;-72
2021/09/28 08:42:22;;;;;;;31.67;29.37;;;18.00;72.50;;;;;;5057515;28;20471;-73
2021/09/28 08:44:49;;;;;;;30.93;28.10;;;18.00;72.60;;;;;;5063827;28;20458;-72
2021/09/28 08:47:17;;;;;;;28.93;27.03;;;18.20;71.70;;;;;;5069479;28;20464;-72
2021/09/28 08:49:44;;;;;;;27.90;26.20;;;18.30;70.10;;;;;;5061224;28;20590;-73
2021/09/28 08:52:11;;;;;;;29.03;26.77;;;18.40;69.50;;;;;;5067729;28;20454;-72
2021/09/28 08:54:39;;;;;;;28.60;26.57;;;18.20;69.80;;;;;;5068628;28;20466;-72
2021/09/28 08:57:06;;;;;;;30.43;28.60;;;18.20;70.00;;;;;;5068274;28;21139;-73
2021/09/28 08:59:41;;;;;;;31.33;29.17;;;18.00;69.90;;;;;;5068383;28;20494;-72
2021/09/28 09:02:09;;;;;;;29.43;27.73;;;18.20;69.70;;;;;;5067071;28;21049;-72
2021/09/28 09:04:38;;;;;;;28.83;27.03;;;18.10;70.20;;;;;;5066830;28;20462;-73
2021/09/28 09:07:21;;;;;;;32.50;29.70;;;18.10;69.90;;;;;;5069027;28;20458;-73
2021/09/28 09:09:48;;;;;;;30.13;28.13;;;18.10;69.90;;;;;;5056156;28;20474;-74
2021/09/28 09:12:29;;;;;;;29.50;27.40;;;17.90;70.70;;;;;;5068423;28;20452;-74
2021/09/28 09:15:16;;;;;;;29.90;28.17;;;17.90;70.40;;;;;;5066009;28;20493;-71
2021/09/28 09:17:43;;;;;;;31.07;28.90;;;17.90;70.50;;;;;;5067050;28;20557;-72
2021/09/28 09:20:25;;;;;;;30.13;28.23;;;17.70;71.30;;;;;;5065499;28;20482;-72
2021/09/28 09:22:52;;;;;;;30.67;28.60;;;17.80;71.80;;;;;;5064053;28;20485;-71
2021/09/28 09:25:19;;;;;;;30.10;28.23;;;17.70;71.90;;;;;;5068445;28;20797;-71
2021/09/28 09:27:46;;;;;;;29.87;27.90;;;17.90;71.40;;;;;;5069024;28;20457;-71
2021/09/28 09:30:19;;;;;;;31.97;29.77;;;17.90;71.50;;;;;;5068064;28;20488;-71
2021/09/28 09:32:50;;;;;;;29.90;28.00;;;18.00;71.00;;;;;;5067885;28;20461;-71
2021/09/28 09:35:25;;;;;;;30.03;28.10;;;18.00;70.70;;;;;;5052211;28;20458;-72
2021/09/28 09:37:59;;;;;;;29.87;27.93;;;18.20;70.60;;;;;;5068505;28;20549;-71
2021/09/28 09:40:34;;;;;;;29.37;27.47;;;18.20;70.00;;;;;;5068062;28;20961;-72
2021/09/28 09:43:01;;;;;;;29.57;27.63;;;18.50;69.20;;;;;;5067464;28;20482;-72
2021/09/28 09:45:28;;;;;;;29.03;27.13;;;18.50;69.10;;;;;;5067405;28;20450;-72
2021/09/28 09:47:55;;;;;;;28.10;26.47;;;18.70;66.40;;;;;;5068147;28;20465;-71
2021/09/28 09:50:23;;;;;;;30.10;27.90;;;18.80;65.50;;;;;;5057446;28;20483;-71
2021/09/28 09:53:11;;;;;;;28.23;26.50;;;18.90;65.00;;;;;;5066411;28;20454;-71
2021/09/28 09:55:40;;;;;;;29.47;27.50;;;19.20;65.90;;;;;;5068398;28;20500;-71
2021/09/28 09:58:08;;;;;;;30.23;28.27;;;19.20;65.00;;;;;;5068454;28;20473;-72
2021/09/28 10:00:37;;;;;;;29.50;27.60;;;19.10;65.10;;;;;;5068366;28;20470;-71
2021/09/28 10:03:06;;;;;;;29.80;28.00;;;19.20;65.00;;;;;;5067143;28;20913;-71
2021/09/28 10:05:34;;;;;;;31.00;29.00;;;19.40;64.90;;;;;;5068219;28;20480;-71
2021/09/28 10:08:04;;;;;;;29.57;27.60;;;19.30;64.00;;;;;;5069311;28;20454;-71
2021/09/28 10:10:33;;;;;;;30.17;28.20;;;19.20;64.50;;;;;;5066555;28;20539;-71
2021/09/28 10:13:00;;;;;;;29.97;27.83;;;18.90;63.00;;;;;;5066989;28;20450;-71
2021/09/28 10:15:26;;;;;;;29.27;27.37;;;18.50;64.20;;;;;;5068421;28;20462;-72
2021/09/28 10:17:53;;;;;;;27.83;26.23;;;18.50;64.70;;;;;;5068882;28;20465;-71
2021/09/28 10:20:29;;;;;;;27.93;25.83;;;18.40;64.40;;;;;;5067701;28;20482;-71
2021/09/28 10:22:58;;;;;;;28.93;26.93;;;18.60;64.00;;;;;;5068540;28;21088;-71
2021/09/28 10:25:44;;;;;;;30.00;28.20;;;18.50;63.50;;;;;;5067189;28;20557;-71
2021/09/28 10:28:31;;;;;;;28.47;26.63;;;18.50;64.20;;;;;;5058492;28;20462;-71
2021/09/28 10:30:59;;;;;;;29.03;27.23;;;18.50;64.90;;;;;;5061754;28;20504;-71
2021/09/28 10:33:34;;;;;;;29.83;28.10;;;18.50;64.50;;;;;;5069564;28;20493;-71
2021/09/28 10:36:03;;;;;;;28.43;26.73;;;18.60;64.50;;;;;;5072321;28;20458;-71
2021/09/28 10:38:53;;;;;;;29.30;27.70;;;18.80;64.30;;;;;;5072887;28;20486;-71
2021/09/28 10:41:46;;;;;;;28.10;26.40;;;19.00;64.30;;;;;;5071305;28;20484;-71
2021/09/28 10:44:39;;;;;;;28.73;26.93;;;19.00;63.00;;;;;;5059191;28;21011;-71
2021/09/28 10:47:07;;;;;;;28.63;26.87;;;19.20;62.00;;;;;;5044640;28;20456;-71
2021/09/28 10:49:36;;;;;;;28.60;26.90;;;19.20;61.80;;;;;;5059218;28;20488;-71
2021/09/28 10:52:37;;;;;;;27.00;25.40;;;19.30;62.00;;;;;;5061241;28;20458;-71
2021/09/28 10:55:39;;;;;;;28.57;26.57;;;19.40;61.30;;;;;;5059326;28;20992;-71
2021/09/28 10:58:14;;;;;;;27.77;26.10;;;19.30;60.50;;;;;;5057334;28;20469;-71
2021/09/28 11:01:14;;;;;;;27.53;25.83;;;19.40;60.20;;;;;;5067753;28;20882;-72
2021/09/28 11:03:51;;;;;;;29.30;27.30;;;19.50;60.00;;;;;;5070264;28;20558;-72
2021/09/28 11:06:22;;;;;;;28.40;26.57;;;19.60;58.40;;;;;;5057779;28;20472;-72
2021/09/28 11:08:55;;;;;;;28.27;26.37;;;19.40;58.90;;;;;;5071577;28;20457;-72
2021/09/28 11:11:24;;;;;;;29.80;27.70;;;19.30;59.80;;;;;;5071635;28;20485;-72
2021/09/28 11:14:00;;;;;;;28.97;27.23;;;19.10;60.30;;;;;;5070474;28;20466;-73
2021/09/28 11:16:27;;;;;;;28.60;26.90;;;19.00;60.90;;;;;;5070996;28;20469;-72
2021/09/28 11:18:56;;;;;;;27.77;26.07;;;19.10;60.00;;;;;;5071402;28;20449;-73
2021/09/28 11:21:24;;;;;;;29.47;27.47;;;19.00;60.00;;;;;;5071072;28;20477;-72
2021/09/28 11:23:52;;;;;;;28.23;26.33;;;18.90;60.10;;;;;;5065853;28;20481;-73
2021/09/28 11:26:29;;;;;;;28.70;26.80;;;18.60;61.10;;;;;;5071038;28;20630;-71
2021/09/28 11:28:59;;;;;;;29.57;27.00;;;18.40;61.50;;;;;;5070373;28;20771;-72
2021/09/28 11:31:33;;;;;;;27.43;25.83;;;18.40;61.50;;;;;;5056742;28;20982;-72
2021/09/28 11:34:00;;;;;;;28.37;26.27;;;18.50;60.20;;;;;;5066105;28;20454;-72
2021/09/28 11:36:32;;;;;;;28.13;26.43;;;18.60;60.10;;;;;;5066855;28;20473;-72
2021/09/28 11:38:59;;;;;;;27.23;25.53;;;18.60;60.20;;;;;;5065648;28;20458;-73
2021/09/28 11:41:26;;;;;;;28.57;26.50;;;18.90;59.80;;;;;;5058583;28;20951;-72
2021/09/28 11:43:55;;;;;;;28.73;26.97;;;19.00;59.60;;;;;;5071257;28;20900;-72
2021/09/28 11:46:24;;;;;;;28.87;26.87;;;19.00;59.20;;;;;;5065259;28;20457;-71
2021/09/28 11:48:56;;;;;;;27.73;26.03;;;19.00;59.70;;;;;;5071423;28;20462;-72
2021/09/28 11:51:25;;;;;;;30.50;27.43;;;19.40;60.10;;;;;;5059245;28;20486;-71
2021/09/28 11:53:54;;;;;;;29.50;27.47;;;19.60;59.40;;;;;;5071656;28;20458;-72
2021/09/28 11:56:22;;;;;;;29.70;27.23;;;19.70;58.20;;;;;;5063571;28;20450;-73
2021/09/28 11:58:51;;;;;;;28.73;27.10;;;19.70;58.10;;;;;;5071831;28;20457;-72
2021/09/28 12:01:19;;;;;;;28.43;26.63;;;19.90;57.60;;;;;;5065116;28;20839;-71
2021/09/28 12:04:07;;;;;;;29.47;27.73;;;19.90;57.10;;;;;;5065781;28;20475;-71
2021/09/28 12:06:46;;;;;;;27.80;26.17;;;19.80;56.80;;;;;;5068738;28;20875;-71
2021/09/28 12:09:13;;;;;;;30.10;28.20;;;19.90;56.20;;;;;;5069913;28;20454;-72
2021/09/28 12:11:59;;;;;;;29.30;27.43;;;19.90;56.60;;;;;;5071402;28;20458;-72
2021/09/28 12:14:37;;;;;;;30.50;28.50;;;19.70;57.60;;;;;;5066971;28;20458;-72
2021/09/28 12:17:11;;;;;;;29.53;27.73;;;19.90;57.70;;;;;;5062352;28;20967;-71
2021/09/28 12:19:43;;;;;;;30.33;28.43;;;19.90;58.00;;;;;;5069354;28;20994;-71
2021/09/28 12:22:10;;;;;;;28.10;26.40;;;20.00;57.30;;;;;;5071266;28;20927;-71
2021/09/28 12:24:49;;;;;;;29.87;28.07;;;20.00;57.30;;;;;;5069632;28;20839;-72
2021/09/28 12:27:16;;;;;;;28.50;26.60;;;20.00;57.80;;;;;;5070518;28;20450;-71
2021/09/28 12:29:45;;;;;;;30.43;28.60;;;20.10;58.60;;;;;;5069543;28;20497;-72
2021/09/28 12:32:19;;;;;;;29.50;27.70;;;20.20;57.40;;;;;;5070459;28;20951;-71
2021/09/28 12:34:57;;;;;;;30.47;28.33;;;20.30;57.40;;;;;;5063665;28;20447;-71
2021/09/28 12:37:25;;;;;;;31.40;29.40;;;20.30;57.10;;;;;;5065392;28;20468;-72
2021/09/28 12:40:00;;;;;;;29.10;27.30;;;20.40;56.60;;;;;;5056166;28;20843;-72